AAL1821 KMIA-MDPC
Flight info
| Callsign | AAL1821 |
|---|---|
| Flight time | N/A |
| Altitude | 35000 |
| Route | KLADA2 JAGOR DCT RUMFO Y441 JUELE UW38 PTA DCT PETRI DCT BEREL BEREL2B |
| Aircraft | B738/M-SDE2E3FGHIRWXY/LB1 |
Departure
| Time | 2026-05-05 19:06 |
|---|---|
| Airport | Miami International Airport (KMIA) |
Arrival
| Time | N/A |
|---|---|
| Airport | Punta Cana International Airport (MDPC) |
| Time | Latitude | Longitude | Altitude | Speed | Heading |
|---|---|---|---|---|---|
| 2026-05-05 18:32 | 25.79732 | -80.28351 | 17 ft | 0 kts | 357° |
| 2026-05-05 18:53 | 25.79718 | -80.28350 | 17 ft | 3 kts | 349° |
| 2026-05-05 18:54 | 25.79699 | -80.28343 | 17 ft | 3 kts | 327° |
| 2026-05-05 18:54 | 25.79684 | -80.28329 | 17 ft | 3 kts | 302° |
| 2026-05-05 18:54 | 25.79676 | -80.28309 | 17 ft | 3 kts | 276° |
| 2026-05-05 18:54 | 25.79676 | -80.28298 | 17 ft | 0 kts | 267° |
| 2026-05-05 18:58 | 25.79676 | -80.28299 | 17 ft | 1 kts | 267° |
| 2026-05-05 18:58 | 25.79675 | -80.28317 | 17 ft | 4 kts | 267° |
| 2026-05-05 18:58 | 25.79673 | -80.28371 | 17 ft | 10 kts | 267° |
| 2026-05-05 18:58 | 25.79669 | -80.28455 | 18 ft | 11 kts | 266° |
| 2026-05-05 18:59 | 25.79661 | -80.28540 | 20 ft | 11 kts | 255° |
| 2026-05-05 18:59 | 25.79651 | -80.28620 | 18 ft | 10 kts | 267° |
| 2026-05-05 18:59 | 25.79647 | -80.28682 | 19 ft | 8 kts | 265° |
| 2026-05-05 18:59 | 25.79643 | -80.28740 | 19 ft | 7 kts | 265° |
| 2026-05-05 19:00 | 25.79631 | -80.28793 | 19 ft | 7 kts | 229° |
| 2026-05-05 19:00 | 25.79575 | -80.28805 | 19 ft | 10 kts | 176° |
| 2026-05-05 19:00 | 25.79483 | -80.28801 | 17 ft | 16 kts | 178° |
| 2026-05-05 19:00 | 25.79365 | -80.28812 | 13 ft | 17 kts | 226° |
| 2026-05-05 19:01 | 25.79390 | -80.28929 | 15 ft | 16 kts | 300° |
| 2026-05-05 19:01 | 25.79446 | -80.29036 | 15 ft | 16 kts | 300° |
| 2026-05-05 19:01 | 25.79499 | -80.29139 | 16 ft | 15 kts | 299° |
| 2026-05-05 19:01 | 25.79549 | -80.29238 | 18 ft | 15 kts | 300° |
| 2026-05-05 19:02 | 25.79603 | -80.29345 | 17 ft | 18 kts | 299° |
| 2026-05-05 19:02 | 25.79665 | -80.29465 | 15 ft | 18 kts | 300° |
| 2026-05-05 19:02 | 25.79726 | -80.29582 | 14 ft | 17 kts | 299° |
| 2026-05-05 19:02 | 25.79783 | -80.29696 | 11 ft | 17 kts | 299° |
| 2026-05-05 19:03 | 25.79838 | -80.29805 | 11 ft | 16 kts | 300° |
| 2026-05-05 19:03 | 25.79874 | -80.29875 | 12 ft | 16 kts | 300° |
| 2026-05-05 19:03 | 25.79919 | -80.29962 | 11 ft | 8 kts | 300° |
| 2026-05-05 19:03 | 25.79924 | -80.29971 | 11 ft | 0 kts | 300° |
| 2026-05-05 19:04 | 25.79924 | -80.29972 | 11 ft | 0 kts | 300° |
| 2026-05-05 19:04 | 25.79932 | -80.29988 | 11 ft | 5 kts | 300° |
| 2026-05-05 19:04 | 25.79963 | -80.30048 | 12 ft | 12 kts | 300° |
| 2026-05-05 19:04 | 25.80016 | -80.30123 | 14 ft | 12 kts | 334° |
| 2026-05-05 19:05 | 25.80072 | -80.30106 | 14 ft | 7 kts | 71° |
| 2026-05-05 19:05 | 25.80073 | -80.30092 | 13 ft | 1 kts | 86° |
| 2026-05-05 19:05 | 25.80075 | -80.30047 | 12 ft | 21 kts | 87° |
| 2026-05-05 19:05 | 25.80093 | -80.29593 | 13 ft | 95 kts | 87° |
| 2026-05-05 19:06 | 25.80134 | -80.28622 | 19 ft | 156 kts | 87° |
| 2026-05-05 19:06 | 25.80188 | -80.27287 | 410 ft | 178 kts | 87° |
| 2026-05-05 19:06 | 25.80235 | -80.25920 | 1358 ft | 173 kts | 88° |
| 2026-05-05 19:06 | 25.80142 | -80.24618 | 2189 ft | 176 kts | 112° |
| 2026-05-05 19:07 | 25.79487 | -80.23334 | 2491 ft | 206 kts | 120° |
| 2026-05-05 19:07 | 25.78739 | -80.21872 | 2693 ft | 229 kts | 119° |
| 2026-05-05 19:07 | 25.77935 | -80.20275 | 3106 ft | 242 kts | 120° |
| 2026-05-05 19:07 | 25.77094 | -80.18610 | 3539 ft | 257 kts | 120° |
| 2026-05-05 19:08 | 25.76204 | -80.16821 | 4053 ft | 270 kts | 120° |
| 2026-05-05 19:08 | 25.75296 | -80.14983 | 4859 ft | 273 kts | 120° |
| 2026-05-05 19:08 | 25.74384 | -80.13139 | 5594 ft | 279 kts | 120° |
| 2026-05-05 19:08 | 25.73443 | -80.11233 | 6313 ft | 284 kts | 119° |
| 2026-05-05 19:09 | 25.72633 | -80.09214 | 7069 ft | 288 kts | 112° |
| 2026-05-05 19:09 | 25.71939 | -80.07109 | 7797 ft | 293 kts | 111° |
| 2026-05-05 19:09 | 25.71264 | -80.04970 | 8494 ft | 297 kts | 111° |
| 2026-05-05 19:09 | 25.70571 | -80.02782 | 9211 ft | 301 kts | 111° |
| 2026-05-05 19:10 | 25.69862 | -80.00578 | 9906 ft | 305 kts | 111° |
| 2026-05-05 19:10 | 25.69132 | -79.98331 | 10390 ft | 318 kts | 111° |
| 2026-05-05 19:10 | 25.68346 | -79.95933 | 10549 ft | 341 kts | 111° |
| 2026-05-05 19:10 | 25.67515 | -79.93415 | 10962 ft | 352 kts | 111° |
| 2026-05-05 19:11 | 25.66662 | -79.90837 | 11558 ft | 358 kts | 111° |
| 2026-05-05 19:11 | 25.65800 | -79.88235 | 12200 ft | 362 kts | 111° |
| 2026-05-05 19:11 | 25.64926 | -79.85605 | 12836 ft | 366 kts | 111° |
| 2026-05-05 19:11 | 25.64041 | -79.82944 | 13420 ft | 371 kts | 111° |
| 2026-05-05 19:12 | 25.63142 | -79.80242 | 14017 ft | 375 kts | 111° |
| 2026-05-05 19:12 | 25.62233 | -79.77513 | 14595 ft | 380 kts | 111° |
| 2026-05-05 19:12 | 25.61312 | -79.74750 | 15157 ft | 385 kts | 110° |
| 2026-05-05 19:12 | 25.60379 | -79.71953 | 15705 ft | 389 kts | 110° |
| 2026-05-05 19:13 | 25.59408 | -79.69132 | 16247 ft | 394 kts | 113° |
| 2026-05-05 19:13 | 25.58288 | -79.66393 | 16765 ft | 398 kts | 116° |
| 2026-05-05 19:13 | 25.57054 | -79.63629 | 17304 ft | 402 kts | 117° |
| 2026-05-05 19:13 | 25.55779 | -79.60851 | 17804 ft | 406 kts | 117° |
| 2026-05-05 19:14 | 25.54492 | -79.58044 | 18272 ft | 411 kts | 117° |
| 2026-05-05 19:14 | 25.53199 | -79.55201 | 18757 ft | 415 kts | 117° |
| 2026-05-05 19:14 | 25.51902 | -79.52327 | 19248 ft | 418 kts | 116° |
| 2026-05-05 19:14 | 25.50603 | -79.49426 | 19713 ft | 423 kts | 116° |
| 2026-05-05 19:15 | 25.49295 | -79.46493 | 20156 ft | 427 kts | 116° |
| 2026-05-05 19:15 | 25.47975 | -79.43528 | 20615 ft | 431 kts | 116° |
| 2026-05-05 19:15 | 25.46644 | -79.40538 | 21044 ft | 435 kts | 116° |
| 2026-05-05 19:15 | 25.45300 | -79.37519 | 21482 ft | 438 kts | 116° |
| 2026-05-05 19:16 | 25.43949 | -79.34486 | 21879 ft | 442 kts | 116° |
| 2026-05-05 19:16 | 25.42584 | -79.31425 | 22258 ft | 446 kts | 116° |
| 2026-05-05 19:16 | 25.41223 | -79.28372 | 22654 ft | 449 kts | 116° |
| 2026-05-05 19:16 | 25.39831 | -79.25260 | 23014 ft | 453 kts | 116° |
| 2026-05-05 19:17 | 25.38430 | -79.22127 | 23389 ft | 456 kts | 116° |
| 2026-05-05 19:17 | 25.37020 | -79.18973 | 23745 ft | 460 kts | 116° |
| 2026-05-05 19:17 | 25.35594 | -79.15788 | 24092 ft | 463 kts | 116° |
| 2026-05-05 19:17 | 25.34160 | -79.12585 | 24437 ft | 466 kts | 116° |
| 2026-05-05 19:18 | 25.32717 | -79.09366 | 24807 ft | 468 kts | 116° |
| 2026-05-05 19:18 | 25.31269 | -79.06140 | 25160 ft | 470 kts | 116° |
| 2026-05-05 19:18 | 25.29811 | -79.02888 | 25501 ft | 473 kts | 116° |
| 2026-05-05 19:18 | 25.28343 | -78.99622 | 25858 ft | 475 kts | 116° |
| 2026-05-05 19:19 | 25.26872 | -78.96346 | 26188 ft | 476 kts | 116° |
| 2026-05-05 19:19 | 25.25391 | -78.93049 | 26440 ft | 480 kts | 116° |
| 2026-05-05 19:19 | 25.23901 | -78.89741 | 26755 ft | 483 kts | 117° |
| 2026-05-05 19:19 | 25.22400 | -78.86414 | 27093 ft | 484 kts | 117° |
| 2026-05-05 19:20 | 25.20895 | -78.83078 | 27416 ft | 486 kts | 117° |
| 2026-05-05 19:20 | 25.19401 | -78.79768 | 27691 ft | 488 kts | 117° |
| 2026-05-05 19:20 | 25.17881 | -78.76402 | 27980 ft | 490 kts | 117° |
| 2026-05-05 19:20 | 25.16356 | -78.73027 | 28294 ft | 492 kts | 117° |
| 2026-05-05 19:21 | 25.14826 | -78.69644 | 28563 ft | 494 kts | 117° |
| 2026-05-05 19:21 | 25.13288 | -78.66243 | 28817 ft | 496 kts | 117° |
| 2026-05-05 19:21 | 25.11740 | -78.62824 | 29087 ft | 498 kts | 117° |
| 2026-05-05 19:21 | 25.10185 | -78.59393 | 29364 ft | 499 kts | 117° |
| 2026-05-05 19:22 | 25.08584 | -78.55987 | 29626 ft | 501 kts | 119° |
| 2026-05-05 19:22 | 25.06920 | -78.52596 | 29853 ft | 504 kts | 120° |
| 2026-05-05 19:22 | 25.05227 | -78.49208 | 30113 ft | 505 kts | 120° |
| 2026-05-05 19:22 | 25.03523 | -78.45809 | 30357 ft | 507 kts | 120° |
| 2026-05-05 19:23 | 25.01842 | -78.42443 | 30558 ft | 509 kts | 119° |
| 2026-05-05 19:23 | 25.00137 | -78.39014 | 30749 ft | 512 kts | 119° |
| 2026-05-05 19:23 | 24.98434 | -78.35573 | 31075 ft | 511 kts | 119° |
| 2026-05-05 19:23 | 24.96733 | -78.32128 | 31441 ft | 509 kts | 118° |
| 2026-05-05 19:24 | 24.95041 | -78.28699 | 31703 ft | 510 kts | 118° |
| 2026-05-05 19:24 | 24.93344 | -78.25263 | 31905 ft | 512 kts | 118° |
| 2026-05-05 19:24 | 24.91639 | -78.21815 | 32150 ft | 512 kts | 118° |
| 2026-05-05 19:24 | 24.89935 | -78.18372 | 32440 ft | 512 kts | 118° |
| 2026-05-05 19:25 | 24.88226 | -78.14924 | 32678 ft | 513 kts | 117° |
| 2026-05-05 19:25 | 24.86514 | -78.11473 | 32923 ft | 513 kts | 117° |
| 2026-05-05 19:25 | 24.84803 | -78.08026 | 33169 ft | 513 kts | 117° |
| 2026-05-05 19:25 | 24.83108 | -78.04614 | 33379 ft | 514 kts | 117° |
| 2026-05-05 19:26 | 24.81394 | -78.01166 | 33615 ft | 514 kts | 116° |
| 2026-05-05 19:26 | 24.79675 | -77.97710 | 33841 ft | 515 kts | 117° |
| 2026-05-05 19:26 | 24.77957 | -77.94258 | 34097 ft | 514 kts | 117° |
| 2026-05-05 19:26 | 24.76238 | -77.90808 | 34381 ft | 513 kts | 117° |
| 2026-05-05 19:27 | 24.74526 | -77.87372 | 34669 ft | 511 kts | 117° |
| 2026-05-05 19:27 | 24.72816 | -77.83944 | 34927 ft | 510 kts | 117° |
| 2026-05-05 19:27 | 24.71104 | -77.80515 | 35077 ft | 512 kts | 117° |
| 2026-05-05 19:27 | 24.69385 | -77.77072 | 35061 ft | 515 kts | 117° |
| 2026-05-05 19:28 | 24.65844 | -77.70231 | 35069 ft | 513 kts | 120° |
| 2026-05-05 19:28 | 24.61979 | -77.63651 | 35070 ft | 510 kts | 122° |
| 2026-05-05 19:29 | 24.58099 | -77.57219 | 35065 ft | 507 kts | 122° |
| 2026-05-05 19:29 | 24.54244 | -77.50741 | 35059 ft | 506 kts | 122° |
| 2026-05-05 19:30 | 24.50423 | -77.44255 | 35072 ft | 505 kts | 122° |
| 2026-05-05 19:30 | 24.46609 | -77.37774 | 35073 ft | 505 kts | 122° |
| 2026-05-05 19:31 | 24.42787 | -77.31283 | 35081 ft | 507 kts | 122° |
| 2026-05-05 19:31 | 24.38947 | -77.24776 | 35076 ft | 508 kts | 122° |
| 2026-05-05 19:32 | 24.35092 | -77.18260 | 35078 ft | 510 kts | 122° |
| 2026-05-05 19:32 | 24.31223 | -77.11722 | 35081 ft | 511 kts | 122° |
| 2026-05-05 19:33 | 24.27344 | -77.05179 | 35076 ft | 512 kts | 122° |
| 2026-05-05 19:33 | 24.23457 | -76.98632 | 35078 ft | 512 kts | 123° |
| 2026-05-05 19:34 | 24.19600 | -76.92139 | 35068 ft | 511 kts | 123° |
| 2026-05-05 19:35 | 24.13781 | -76.82367 | 35060 ft | 509 kts | 123° |
| 2026-05-05 19:35 | 24.09916 | -76.75887 | 35052 ft | 507 kts | 123° |
| 2026-05-05 19:36 | 24.06068 | -76.69444 | 35041 ft | 504 kts | 123° |
| 2026-05-05 19:36 | 24.02234 | -76.63032 | 35040 ft | 502 kts | 124° |
| 2026-05-05 19:37 | 23.98426 | -76.56672 | 35041 ft | 498 kts | 123° |
| 2026-05-05 19:37 | 23.94635 | -76.50350 | 35046 ft | 496 kts | 123° |
| 2026-05-05 19:38 | 23.90880 | -76.44090 | 35044 ft | 495 kts | 124° |
| 2026-05-05 19:38 | 23.87102 | -76.37806 | 35045 ft | 494 kts | 124° |
| 2026-05-05 19:39 | 23.83326 | -76.31529 | 35049 ft | 494 kts | 124° |
| 2026-05-05 19:39 | 23.79541 | -76.25249 | 35048 ft | 495 kts | 124° |
| 2026-05-05 19:40 | 23.75752 | -76.18967 | 35048 ft | 496 kts | 124° |
| 2026-05-05 19:40 | 23.71949 | -76.12671 | 35050 ft | 497 kts | 124° |
| 2026-05-05 19:41 | 23.68136 | -76.06365 | 35048 ft | 499 kts | 124° |
| 2026-05-05 19:41 | 23.64308 | -76.00047 | 35048 ft | 500 kts | 124° |
| 2026-05-05 19:42 | 23.60494 | -75.93754 | 35056 ft | 500 kts | 124° |
| 2026-05-05 19:42 | 23.56651 | -75.87424 | 35052 ft | 500 kts | 124° |
| 2026-05-05 19:43 | 23.52809 | -75.81101 | 35052 ft | 500 kts | 124° |
| 2026-05-05 19:43 | 23.48967 | -75.74788 | 35052 ft | 499 kts | 124° |
| 2026-05-05 19:44 | 23.45132 | -75.68494 | 35052 ft | 498 kts | 124° |
| 2026-05-05 19:44 | 23.41301 | -75.62213 | 35049 ft | 497 kts | 124° |
| 2026-05-05 19:45 | 23.37484 | -75.55964 | 35053 ft | 495 kts | 124° |
| 2026-05-05 19:45 | 23.33669 | -75.49728 | 35051 ft | 494 kts | 124° |
| 2026-05-05 19:46 | 23.29867 | -75.43516 | 35059 ft | 493 kts | 124° |
| 2026-05-05 19:46 | 23.26091 | -75.37356 | 35052 ft | 492 kts | 124° |
| 2026-05-05 19:47 | 23.22293 | -75.31169 | 35056 ft | 491 kts | 124° |
| 2026-05-05 19:47 | 23.18494 | -75.24987 | 35054 ft | 491 kts | 124° |
| 2026-05-05 19:48 | 23.14699 | -75.18819 | 35054 ft | 491 kts | 124° |
| 2026-05-05 19:48 | 23.10905 | -75.12655 | 35058 ft | 491 kts | 124° |
| 2026-05-05 19:49 | 23.07080 | -75.06511 | 35056 ft | 491 kts | 126° |
| 2026-05-05 19:49 | 23.03813 | -75.01468 | 35060 ft | 491 kts | 127° |
| 2026-05-05 19:50 | 22.99206 | -74.94432 | 35059 ft | 491 kts | 127° |
| 2026-05-05 19:50 | 22.95891 | -74.89353 | 35058 ft | 492 kts | 127° |
| 2026-05-05 19:51 | 22.91970 | -74.83326 | 35053 ft | 492 kts | 127° |
| 2026-05-05 19:51 | 22.88019 | -74.77255 | 35056 ft | 492 kts | 127° |
| 2026-05-05 19:52 | 22.84070 | -74.71194 | 35058 ft | 492 kts | 127° |
| 2026-05-05 19:52 | 22.80113 | -74.65132 | 35055 ft | 492 kts | 127° |
| 2026-05-05 19:53 | 22.76158 | -74.59080 | 35053 ft | 491 kts | 127° |
| 2026-05-05 19:53 | 22.72211 | -74.53043 | 35054 ft | 490 kts | 127° |
| 2026-05-05 19:54 | 22.68269 | -74.47021 | 35051 ft | 489 kts | 127° |
| 2026-05-05 19:54 | 22.64334 | -74.41018 | 35055 ft | 488 kts | 127° |
| 2026-05-05 19:55 | 22.60402 | -74.35027 | 35057 ft | 487 kts | 127° |
| 2026-05-05 19:55 | 22.56479 | -74.29057 | 35052 ft | 486 kts | 127° |
| 2026-05-05 19:56 | 22.52560 | -74.23097 | 35053 ft | 486 kts | 127° |
| 2026-05-05 19:56 | 22.48666 | -74.17185 | 35057 ft | 485 kts | 127° |
| 2026-05-05 19:57 | 22.44751 | -74.11245 | 35054 ft | 485 kts | 127° |
| 2026-05-05 19:57 | 22.40838 | -74.05317 | 35060 ft | 484 kts | 127° |
| 2026-05-05 19:58 | 22.36920 | -73.99388 | 35058 ft | 485 kts | 128° |
| 2026-05-05 19:58 | 22.33000 | -73.93461 | 35055 ft | 485 kts | 128° |
| 2026-05-05 19:59 | 22.29083 | -73.87542 | 35058 ft | 484 kts | 128° |
| 2026-05-05 19:59 | 22.25158 | -73.81622 | 35053 ft | 484 kts | 128° |
| 2026-05-05 20:00 | 22.21228 | -73.75701 | 35057 ft | 484 kts | 128° |
| 2026-05-05 20:00 | 22.17301 | -73.69791 | 35049 ft | 485 kts | 128° |
| 2026-05-05 20:01 | 22.13371 | -73.63881 | 35048 ft | 485 kts | 128° |
| 2026-05-05 20:01 | 22.09466 | -73.58016 | 35048 ft | 485 kts | 128° |
| 2026-05-05 20:02 | 22.05523 | -73.52101 | 35046 ft | 485 kts | 128° |
| 2026-05-05 20:02 | 22.01587 | -73.46200 | 35046 ft | 485 kts | 128° |
| 2026-05-05 20:03 | 21.97643 | -73.40299 | 35049 ft | 485 kts | 128° |
| 2026-05-05 20:03 | 21.93702 | -73.34404 | 35049 ft | 485 kts | 128° |
| 2026-05-05 20:04 | 21.89754 | -73.28509 | 35043 ft | 485 kts | 128° |
| 2026-05-05 20:04 | 21.85815 | -73.22630 | 35048 ft | 484 kts | 128° |
| 2026-05-05 20:05 | 21.81873 | -73.16756 | 35046 ft | 483 kts | 128° |
| 2026-05-05 20:05 | 21.77942 | -73.10902 | 35045 ft | 482 kts | 128° |
| 2026-05-05 20:06 | 21.74014 | -73.05060 | 35049 ft | 481 kts | 128° |
| 2026-05-05 20:06 | 21.70113 | -72.99266 | 35050 ft | 481 kts | 128° |
| 2026-05-05 20:07 | 21.66190 | -72.93443 | 35046 ft | 480 kts | 128° |
| 2026-05-05 20:07 | 21.62268 | -72.87628 | 35047 ft | 480 kts | 128° |
| 2026-05-05 20:08 | 21.58350 | -72.81825 | 35045 ft | 479 kts | 128° |
| 2026-05-05 20:08 | 21.54437 | -72.76036 | 35047 ft | 478 kts | 128° |
| 2026-05-05 20:09 | 21.50525 | -72.70254 | 35045 ft | 478 kts | 128° |
| 2026-05-05 20:09 | 21.46618 | -72.64482 | 35048 ft | 478 kts | 128° |
| 2026-05-05 20:10 | 21.42703 | -72.58712 | 35047 ft | 478 kts | 128° |
| 2026-05-05 20:10 | 21.38781 | -72.52935 | 35044 ft | 478 kts | 128° |
| 2026-05-05 20:11 | 21.34867 | -72.47174 | 35047 ft | 478 kts | 129° |
| 2026-05-05 20:11 | 21.30969 | -72.41443 | 35043 ft | 478 kts | 129° |
| 2026-05-05 20:12 | 21.27038 | -72.35672 | 35051 ft | 479 kts | 129° |
| 2026-05-05 20:12 | 21.23107 | -72.29902 | 35044 ft | 479 kts | 129° |
| 2026-05-05 20:13 | 21.19176 | -72.24141 | 35046 ft | 479 kts | 129° |
| 2026-05-05 20:13 | 21.15245 | -72.18387 | 35045 ft | 479 kts | 129° |
| 2026-05-05 20:14 | 21.11310 | -72.12630 | 35046 ft | 478 kts | 129° |
| 2026-05-05 20:14 | 21.07376 | -72.06882 | 35049 ft | 478 kts | 129° |
| 2026-05-05 20:15 | 21.03445 | -72.01143 | 35045 ft | 478 kts | 129° |
| 2026-05-05 20:15 | 20.99540 | -71.95448 | 35045 ft | 477 kts | 129° |
| 2026-05-05 20:16 | 20.95610 | -71.89723 | 35032 ft | 477 kts | 129° |
| 2026-05-05 20:16 | 20.91683 | -71.84009 | 35026 ft | 476 kts | 129° |
| 2026-05-05 20:17 | 20.87767 | -71.78317 | 35038 ft | 475 kts | 129° |
| 2026-05-05 20:17 | 20.83856 | -71.72637 | 35035 ft | 474 kts | 129° |
| 2026-05-05 20:18 | 20.79953 | -71.66971 | 35038 ft | 473 kts | 129° |
| 2026-05-05 20:18 | 20.76049 | -71.61314 | 35037 ft | 472 kts | 129° |
| 2026-05-05 20:19 | 20.72154 | -71.55673 | 35035 ft | 472 kts | 129° |
| 2026-05-05 20:19 | 20.68280 | -71.50067 | 35038 ft | 472 kts | 129° |
| 2026-05-05 20:20 | 20.64381 | -71.44435 | 35037 ft | 471 kts | 129° |
| 2026-05-05 20:20 | 20.60485 | -71.38809 | 35037 ft | 472 kts | 129° |
| 2026-05-05 20:21 | 20.56578 | -71.33172 | 35038 ft | 472 kts | 129° |
| 2026-05-05 20:21 | 20.52663 | -71.27529 | 35030 ft | 473 kts | 129° |
| 2026-05-05 20:22 | 20.48741 | -71.21884 | 35028 ft | 474 kts | 129° |
| 2026-05-05 20:22 | 20.44814 | -71.16235 | 35029 ft | 474 kts | 129° |
| 2026-05-05 20:23 | 20.40628 | -71.10833 | 35018 ft | 470 kts | 141° |
| 2026-05-05 20:23 | 20.35546 | -71.06510 | 35024 ft | 467 kts | 146° |
| 2026-05-05 20:24 | 20.30389 | -71.02309 | 35026 ft | 467 kts | 146° |
| 2026-05-05 20:24 | 20.25288 | -70.98097 | 35025 ft | 467 kts | 146° |
| 2026-05-05 20:25 | 20.20179 | -70.93837 | 35028 ft | 466 kts | 146° |
| 2026-05-05 20:25 | 20.15087 | -70.89583 | 35028 ft | 465 kts | 146° |
| 2026-05-05 20:26 | 20.11685 | -70.86744 | 35028 ft | 464 kts | 146° |
| 2026-05-05 20:26 | 20.07080 | -70.82906 | 35029 ft | 464 kts | 146° |
| 2026-05-05 20:27 | 20.02003 | -70.78680 | 35024 ft | 463 kts | 146° |